Latest Weather Observations for Cape Nelson

IDV60801

Issued at 9:12 pm EST Thursday 20 June 2019 (issued every 10 minutes, with the page automatically refreshed every 10 minutes)

About weather observations | Map of weather stations | Latest weather observations for VIC | Other Formats
Station Details ID: 090184 Name: CAPE NELSON LIGHTHOUSE Lat: -38.43 Lon: 141.54 Height: 45.4 m
Data from the previous 72 hours. | See also: Recent months at Cape Nelson
Date/Time
EST
Temp
°C
App
Temp
°C
Dew
Point
°C
Rel
Hum
%
Delta-T
°C
Wind Press
QNH
hPa
Press
MSL
hPa
Rain since
9am
mm
Dir  Spd
km/h
Gust
km/h
Spd
kts
Gust
kts
20/09:00pm 10.4 5.7 3.4 62 3.0 S 17 22 9 12 1028.3 1028.3 0.2
20/08:30pm 10.5 6.1 4.6 67 2.7 SSE 17 20 9 11 1028.3 1028.3 0.2
20/08:00pm 10.4 6.1 5.2 70 2.4 SSE 17 30 9 16 1028.1 1028.1 0.2
20/07:30pm 10.1 7.2 4.5 68 2.5 S 9 11 5 6 1028.0 1028.0 0.2
20/07:00pm 10.5 6.5 4.9 68 2.5 S 15 20 8 11 1027.8 1027.8 0.2
20/06:30pm 10.4 7.6 5.0 69 2.4 S 9 17 5 9 1027.4 1027.4 0.2
20/06:00pm 10.2 6.9 4.4 67 2.6 SSE 11 19 6 10 1027.1 1027.1 0.2
20/05:30pm 10.1 7.2 4.5 68 2.5 S 9 15 5 8 1027.0 1027.0 0.2
20/05:00pm 10.2 7.3 4.4 67 2.6 S 9 15 5 8 1026.7 1026.7 0.2
20/04:30pm 10.6 7.4 4.9 68 2.6 S 11 17 6 9 1026.4 1026.5 0.2
20/04:00pm 10.7 8.1 4.0 63 3.0 S 7 13 4 7 1026.3 1026.4 0.2
20/03:30pm 10.8 8.4 5.1 68 2.6 S 7 11 4 6 1026.1 1026.2 0.2
20/03:00pm 11.9 9.6 5.8 66 2.8 S 7 11 4 6 1026.0 1026.1 0.2
20/02:30pm 11.5 9.1 5.4 66 2.8 W 7 13 4 7 1026.2 1026.3 0.2
20/02:00pm 11.4 8.5 4.8 64 3.0 WSW 9 17 5 9 1026.1 1026.2 0.2
20/01:30pm 11.1 8.2 4.8 65 2.9 W 9 13 5 7 1026.4 1026.5 0.2
20/01:00pm 11.6 9.0 5.9 68 2.6 W 9 13 5 7 1026.7 1026.7 0.2
20/12:30pm 10.9 8.5 4.4 64 2.9 W 6 11 3 6 1026.9 1026.9 0.2
20/12:00pm 10.8 8.1 5.8 71 2.3 WNW 9 13 5 7 1027.1 1027.1 0.2
20/11:30am 10.5 7.3 5.3 70 2.4 WNW 11 17 6 9 1027.4 1027.4 0.2
20/11:00am 10.1 7.6 4.9 70 2.3 SSW 7 11 4 6 1027.6 1027.6 0.2
20/10:30am 9.4 7.1 5.6 77 1.7 SSE 7 13 4 7 1027.8 1027.8 0.0
20/10:00am 9.1 7.2 6.7 85 1.1 NW 6 7 3 4 1027.6 1027.6 0.0
20/09:30am 8.5 6.4 6.8 89 0.8 NNW 7 11 4 6 1027.4 1027.4 0.0
20/09:00am 7.8 5.2 6.1 89 0.8 N 9 11 5 6 1027.2 1027.2 0.6
20/08:30am 7.1 4.4 5.6 90 0.7 N 9 11 5 6 1027.0 1027.0 0.6
20/08:00am 6.9 3.5 5.7 92 0.5 N 13 15 7 8 1026.9 1026.9 0.6
20/07:30am 7.0 4.4 5.9 93 0.5 NNW 9 11 5 6 1026.8 1026.8 0.6
20/07:00am 7.1 4.5 5.9 92 0.5 NNW 9 11 5 6 1026.7 1026.7 0.6
20/06:30am 7.4 4.8 6.0 91 0.6 N 9 9 5 5 1026.5 1026.6 0.6
20/06:00am 8.2 5.9 5.8 85 1.1 NE 7 9 4 5 1026.3 1026.4 0.6
20/05:30am 8.3 4.9 5.8 84 1.1 E 13 20 7 11 1026.1 1026.2 0.6
20/05:00am 8.4 4.8 6.7 89 0.8 E 15 19 8 10 1026.2 1026.3 0.6
20/04:30am 6.0 4.1 5.1 94 0.4 NNW 4 6 2 3 1026.2 1026.3 0.6
20/04:00am 5.7 3.2 4.8 94 0.4 NNW 7 9 4 5 1026.2 1026.3 0.6
20/03:30am 5.9 4.4 4.9 93 0.4 NNW 2 9 1 5 1026.4 1026.5 0.6
20/03:00am 6.9 4.8 5.8 93 0.5 WNW 6 11 3 6 1026.4 1026.5 0.6
20/02:30am 6.0 3.5 5.0 93 0.4 NW 7 7 4 4 1026.5 1026.6 0.6
20/02:00am 6.3 3.1 5.3 93 0.4 NNW 11 13 6 7 1026.5 1026.6 0.6
20/01:30am 6.6 3.9 5.4 92 0.5 N 9 11 5 6 1026.5 1026.6 0.6
20/01:00am 6.4 3.3 5.4 93 0.4 N 11 15 6 8 1026.7 1026.7 0.6
20/12:30am 6.3 2.7 5.1 92 0.5 N 13 13 7 7 1026.7 1026.7 0.6
20/12:00am 6.6 3.0 5.2 91 0.6 N 13 13 7 7 1026.8 1026.8 0.6
 
Date/Time
EST
Temp
°C
App
Temp
°C
Dew
Point
°C
Rel
Hum
%
Delta-T
°C
Wind Press
QNH
hPa
Press
MSL
hPa
Rain since
9am
mm
Dir  Spd
km/h
Gust
km/h
Spd
kts
Gust
kts
19/11:30pm 6.9 3.8 5.5 91 0.6 N 11 15 6 8 1026.8 1026.8 0.6
19/11:00pm 7.2 4.1 5.7 90 0.7 N 11 13 6 7 1026.9 1026.9 0.6
19/10:30pm 6.9 4.5 5.2 89 0.8 NNE 7 9 4 5 1026.9 1026.9 0.6
19/10:00pm 8.8 6.4 5.4 79 1.5 ESE 7 11 4 6 1026.9 1026.9 0.6
19/09:30pm 9.1 5.4 6.2 82 1.3 SE 15 19 8 10 1027.1 1027.1 0.6
19/09:00pm 9.0 6.1 6.4 84 1.2 SE 11 15 6 8 1027.2 1027.2 0.6
19/08:30pm 8.8 6.6 5.5 80 1.5 NE 6 9 3 5 1027.1 1027.1 0.6
19/08:00pm 9.5 7.1 5.3 75 1.9 SSE 7 13 4 7 1027.1 1027.1 0.6
19/07:30pm 9.3 6.7 5.9 79 1.6 WNW 9 15 5 8 1027.2 1027.2 0.6
19/07:00pm 9.2 5.9 6.3 82 1.3 WSW 13 19 7 10 1027.1 1027.1 0.6
19/06:30pm 9.6 6.4 6.7 82 1.4 WNW 13 17 7 9 1026.9 1026.9 0.4
19/06:00pm 9.3 6.3 5.9 79 1.5 S 11 15 6 8 1026.8 1026.8 0.4
19/05:30pm 10.0 5.8 7.3 83 1.3 SSE 19 28 10 15 1026.8 1026.8 0.4
19/05:00pm 10.1 7.7 5.3 72 2.2 S 7 11 4 6 1026.7 1026.7 0.4
19/04:30pm 10.3 8.0 5.7 73 2.1 S 7 11 4 6 1026.7 1026.7 0.4
19/04:00pm 10.4 7.7 5.6 72 2.2 SSW 9 17 5 9 1026.7 1026.7 0.4
19/03:30pm 10.5 7.6 6.6 77 1.8 WNW 11 22 6 12 1026.5 1026.6 0.4
19/03:00pm 11.2 7.8 5.9 70 2.5 S 13 19 7 10 1026.5 1026.6 0.4
19/02:30pm 12.5 9.3 5.2 61 3.4 S 11 15 6 8 1026.5 1026.6 0.4
19/02:00pm 12.1 9.4 5.5 64 3.0 S 9 15 5 8 1026.8 1026.8 0.4
19/01:30pm 11.4 8.3 5.7 68 2.6 S 11 15 6 8 1026.9 1026.9 0.4
19/01:00pm 11.9 8.6 6.2 68 2.7 S 13 20 7 11 1027.2 1027.2 0.4
19/12:30pm 11.3 8.1 5.2 66 2.8 S 11 15 6 8 1027.4 1027.4 0.4
19/12:00pm 10.8 7.8 6.0 72 2.2 SSE 11 17 6 9 1027.7 1027.7 0.4
19/11:30am 9.7 5.1 6.6 81 1.4 SE 20 28 11 15 1027.9 1027.9 0.4
19/11:00am 10.7 8.4 5.7 71 2.3 S 7 15 4 8 1027.9 1027.9 0.4
19/10:30am 10.1 7.6 6.6 79 1.6 S 9 15 5 8 1027.8 1027.8 0.4
19/10:00am 10.2 7.5 7.3 82 1.4 SW 11 22 6 12 1027.5 1027.5 0.4
19/09:30am 9.3 4.8 5.9 79 1.6 SSE 19 26 10 14 1027.2 1027.2 0.0
19/09:00am 9.5 6.0 5.5 76 1.8 SSE 13 24 7 13 1027.0 1027.0 4.4
19/08:30am 9.1 6.8 5.8 80 1.5 NW 7 22 4 12 1026.7 1026.7 4.2
19/08:00am 9.6 4.8 5.6 76 1.8 SSE 20 32 11 17 1026.2 1026.3 4.0
19/07:30am 9.7 5.1 6.4 80 1.5 SE 20 37 11 20 1025.8 1025.9 4.0
19/07:00am 9.5 6.0 5.3 75 1.9 NE 13 22 7 12 1025.5 1025.6 4.0
19/06:30am 9.0 5.9 5.7 80 1.5 SSE 11 19 6 10 1025.6 1025.7 3.4
19/06:00am 9.1 5.2 5.3 77 1.7 SSE 15 28 8 15 1025.4 1025.5 2.8
19/05:30am 9.8 6.6 3.1 63 2.9 NNE 9 15 5 8 1025.0 1025.1 2.6
19/05:00am 10.3 6.6 4.5 67 2.6 SSE 13 20 7 11 1024.8 1024.9 2.6
19/04:30am 10.2 5.6 3.7 64 2.9 SE 17 26 9 14 1024.8 1024.9 2.6
19/04:00am 10.3 6.1 3.6 63 2.9 SE 15 28 8 15 1024.7 1024.8 2.6
19/03:30am 10.0 4.5 4.2 67 2.6 S 22 32 12 17 1024.8 1024.9 2.6
19/03:00am 10.1 3.4 5.7 74 2.0 SSE 30 44 16 24 1024.5 1024.6 2.6
19/02:30am 10.7 4.9 4.2 64 2.9 SSE 24 35 13 19 1024.6 1024.7 2.6
19/02:00am 10.7 4.2 4.6 66 2.7 S 28 37 15 20 1024.5 1024.6 2.6
19/01:37am 10.3 5.1 3.6 63 2.9 SSE 20 41 11 22 1024.4 1024.5 2.6
19/01:30am 10.1 5.3 4.7 69 2.4 SSE 19 32 10 17 1024.4 1024.5 2.6
19/01:15am 10.6 5.1 5.8 72 2.2 SSE 24 43 13 23 1024.4 1024.5 2.6
19/01:00am 10.4 6.5 5.2 70 2.4 NNE 15 24 8 13 1024.3 1024.4 2.6
19/12:30am 10.3 5.2 4.0 65 2.8 SSE 20 33 11 18 1024.3 1024.4 2.6
19/12:00am 10.1 3.9 4.3 67 2.6 SSE 26 43 14 23 1024.6 1024.7 2.6
 
Date/Time
EST
Temp
°C
App
Temp
°C
Dew
Point
°C
Rel
Hum
%
Delta-T
°C
Wind Press
QNH
hPa
Press
MSL
hPa
Rain since
9am
mm
Dir  Spd
km/h
Gust
km/h
Spd
kts
Gust
kts
18/11:30pm 9.9 5.2 3.0 62 3.0 ENE 17 28 9 15 1024.3 1024.4 2.6
18/11:00pm 9.8 5.6 4.0 67 2.5 NNE 15 26 8 14 1024.3 1024.4 2.6
18/10:30pm 10.2 3.6 6.0 75 1.9 SSE 30 44 16 24 1023.9 1024.0 2.4
18/10:26pm 10.4 4.1 5.8 73 2.1 SSE 28 44 15 24 1024.1 1024.2 2.4
18/10:00pm 9.8 6.0 4.0 67 2.5 SSE 13 26 7 14 1023.9 1024.0 2.4
18/09:30pm 10.1 3.8 5.5 73 2.1 SSE 28 41 15 22 1023.8 1023.9 2.2
18/09:02pm 11.0 5.6 6.2 72 2.2 SE 24 46 13 25 1023.6 1023.7 2.2
18/09:00pm 10.9 5.7 5.7 70 2.4 SE 22 46 12 25 1023.5 1023.6 2.2
18/08:30pm 10.9 5.6 4.8 66 2.8 SSE 22 41 12 22 1023.3 1023.4 2.2
18/08:00pm 9.6 5.9 4.4 70 2.3 SSE 13 28 7 15 1023.2 1023.3 2.2
18/07:30pm 8.8 4.0 5.5 80 1.5 S 20 39 11 21 1023.3 1023.4 2.2
18/07:10pm 9.8 2.8 6.0 77 1.8 SSE 32 50 17 27 1022.8 1022.9 1.8
18/07:01pm 10.4 5.7 6.2 75 2.0 E 20 46 11 25 1023.1 1023.2 1.8
18/07:00pm 10.5 6.3 5.7 72 2.2 E 17 46 9 25 1022.9 1023.0 1.8
18/06:30pm 10.1 4.4 4.9 70 2.3 SSE 24 39 13 21 1022.6 1022.7 1.8
18/06:00pm 9.0 4.7 6.8 86 1.0 SSE 19 30 10 16 1022.7 1022.8 1.8
18/05:52pm 8.9 2.6 5.5 79 1.5 SSE 28 46 15 25 1022.6 1022.7 1.8
18/05:48pm 9.7 3.1 5.9 77 1.7 SSE 30 44 16 24 1022.6 1022.7 1.4
18/05:30pm 9.9 5.6 5.1 72 2.2 NE 17 26 9 14 1022.1 1022.2 1.4
18/05:00pm 9.9 3.1 5.3 73 2.1 S 30 43 16 23 1022.0 1022.1 1.4
18/04:30pm 10.3 5.1 5.5 72 2.2 ESE 22 56 12 30 1021.6 1021.7 1.4
18/04:00pm 10.7 6.1 3.7 62 3.1 E 17 28 9 15 1021.3 1021.4 1.4
18/03:33pm 11.1 6.4 6.0 71 2.4 ESE 20 48 11 26 1020.9 1021.0 1.4
18/03:30pm 11.1 6.2 5.0 66 2.8 SE 20 44 11 24 1020.7 1020.8 1.4
18/03:00pm 11.4 6.9 6.1 70 2.5 E 19 39 10 21 1020.2 1020.3 1.4
18/02:30pm 10.7 4.3 5.0 68 2.6 W 28 44 15 24 1020.5 1020.6 1.4
18/02:14pm 10.5 5.3 5.5 71 2.3 NNW 22 48 12 26 1020.5 1020.6 1.4
18/02:00pm 11.5 6.7 4.5 62 3.2 SE 19 32 10 17 1020.2 1020.3 1.4
18/01:30pm 12.3 7.8 4.3 58 3.6 NNE 17 28 9 15 1019.9 1020.0 1.4
18/01:00pm 11.5 6.4 4.0 60 3.3 NNE 20 32 11 17 1019.8 1019.9 1.4
18/12:30pm 11.1 5.8 3.2 58 3.5 WSW 20 39 11 21 1020.1 1020.2 1.4
18/12:00pm 11.4 4.7 3.7 59 3.4 SSE 28 56 15 30 1019.9 1020.0 1.2
18/11:30am 11.4 3.9 4.4 62 3.2 SSE 33 46 18 25 1019.9 1020.0 1.2
18/11:07am 11.3 4.7 4.1 61 3.2 SE 28 54 15 29 1019.5 1019.6 1.2
18/11:00am 11.3 5.1 4.5 63 3.1 SE 26 54 14 29 1019.2 1019.2 1.2
18/10:30am 10.4 4.0 3.4 62 3.1 SSE 26 41 14 22 1019.1 1019.1 1.2
18/10:00am 10.6 4.2 5.2 69 2.5 SSE 28 56 15 30 1018.8 1018.8 1.2
18/09:46am 10.1 3.8 5.7 74 2.0 SSE 28 48 15 26 1018.6 1018.6 1.2
18/09:30am 9.2 4.6 6.5 83 1.3 SSE 20 46 11 25 1018.3 1018.3 1.2
18/09:05am 8.2 2.1 6.5 89 0.8 SE 28 48 15 26 1018.0 1018.0 0.6
18/09:00am 8.5 2.5 7.1 91 0.7 SE 28 52 15 28 1017.8 1017.8 6.8
18/08:49am 8.9 3.6 6.7 86 1.0 NE 24 46 13 25 1017.2 1017.2 4.4
18/08:40am 10.5 3.6 6.6 77 1.8 SSE 32 48 17 26 1017.5 1017.5 4.0
18/08:30am 10.7 3.0 7.0 78 1.8 S 37 50 20 27 1017.3 1017.3 4.0
18/08:04am 10.7 4.8 5.9 72 2.2 SE 26 52 14 28 1016.6 1016.6 4.0
18/08:00am 11.0 5.3 6.9 76 1.9 SE 26 48 14 26 1016.3 1016.3 4.0
18/07:32am 10.5 4.5 7.2 80 1.6 SSE 28 61 15 33 1015.9 1015.9 4.0
18/07:30am 10.4 4.7 6.7 78 1.7 SSE 26 48 14 26 1015.8 1015.8 4.0
18/07:16am 10.4 4.8 7.1 80 1.6 SSE 26 48 14 26 1015.6 1015.6 4.0
18/07:00am 10.7 5.5 7.2 79 1.7 NE 24 39 13 21 1015.1 1015.1 4.0
18/06:30am 10.6 5.0 7.1 79 1.7 ESE 26 59 14 32 1014.6 1014.6 4.0
18/06:05am 10.3 4.9 8.1 86 1.1 E 26 48 14 26 1014.0 1014.0 4.0
18/06:00am 10.5 5.6 8.3 86 1.1 NE 24 39 13 21 1014.0 1014.0 4.0
18/05:30am 11.2 5.5 8.4 83 1.4 W 28 54 15 29 1013.8 1013.8 3.6
18/05:27am 10.9 5.5 8.1 83 1.4 WNW 26 54 14 29 1013.7 1013.7 3.6
18/05:07am 11.8 4.3 9.5 86 1.2 W 39 59 21 32 1013.2 1013.2 3.6
18/05:05am 11.7 3.6 8.6 81 1.5 WSW 41 59 22 32 1013.6 1013.6 3.6
18/05:00am 11.6 3.7 7.7 77 1.9 WSW 39 52 21 28 1013.6 1013.6 3.6
18/04:36am 10.8 4.1 7.5 80 1.6 W 32 52 17 28 1013.5 1013.5 3.6
18/04:30am 11.0 5.3 8.4 84 1.3 W 28 46 15 25 1013.3 1013.3 3.6
18/04:00am 11.2 5.7 10.4 95 0.4 W 30 52 16 28 1012.9 1012.9 3.6
18/03:58am 11.1 6.0 10.5 96 0.3 WNW 28 52 15 28 1013.2 1013.2 3.6
18/03:30am 10.1 4.6 9.2 94 0.4 NNW 28 41 15 22 1013.1 1013.1 0.6
18/03:00am 10.2 5.1 9.3 94 0.4 NNW 26 35 14 19 1013.1 1013.1 0.4
18/02:30am 10.3 4.8 9.1 92 0.6 NNW 28 39 15 21 1013.0 1013.0 0.4
18/02:00am 10.4 4.9 9.0 91 0.7 NNW 28 41 15 22 1012.9 1012.9 0.4
18/01:34am 10.8 4.9 9.2 90 0.8 NNW 30 48 16 26 1012.9 1012.9 0.2
18/01:30am 10.9 4.7 9.2 89 0.8 NNW 32 48 17 26 1012.9 1012.9 0.2
18/01:02am 11.6 6.0 8.6 82 1.5 NNW 28 46 15 25 1013.2 1013.2 0.0
18/01:00am 11.7 6.4 8.6 81 1.5 NNW 26 39 14 21 1013.3 1013.3 0.0
18/12:30am 11.7 5.8 7.6 76 2.0 NNW 28 37 15 20 1013.4 1013.4 0.0
18/12:00am 11.6 5.7 7.5 76 2.0 NNW 28 43 15 23 1013.7 1013.7 0.0
 
Date/Time
EST
Temp
°C
App
Temp
°C
Dew
Point
°C
Rel
Hum
%
Delta-T
°C
Wind Press
QNH
hPa
Press
MSL
hPa
Rain since
9am
mm
Dir  Spd
km/h
Gust
km/h
Spd
kts
Gust
kts
17/11:30pm 11.5 6.0 7.6 77 1.9 NNW 26 43 14 23 1013.9 1013.9 0.0
17/11:00pm 11.5 6.1 7.8 78 1.8 NNW 26 41 14 22 1014.2 1014.2 0.0
17/10:30pm 11.6 7.0 8.1 79 1.7 NNW 22 35 12 19 1014.6 1014.6 0.0
17/10:00pm 11.9 7.7 8.4 79 1.7 NNW 20 30 11 16 1015.0 1015.0 0.0
17/09:30pm 11.8 6.8 8.1 78 1.8 NNW 24 37 13 20 1015.2 1015.2 0.0

Other formats

Comma delimited format used in spreadsheet applications
http://www.bom.gov.au/fwo/IDV60801/IDV60801.94826.axf

JavaScript Object Notation format (JSON) in row-major order
http://www.bom.gov.au/fwo/IDV60801/IDV60801.94826.json

Data quality

Most of these data are generated automatically and are frequently updated. Quality checks on data are not normally performed. It is possible for incorrect values to appear. Refer to information at About Latest Weather Observations and please check the disclaimer before using these data.